Terminal Aerodrome Forecast
Issued by NWS

Home | Current Version | Previous Version | Text Only | Print | Product List | Glossary On
Versions: 1 2 3 4 5 6 7 8 9 10 11 12 13 14 15 16 17 18 19 20 21 22 23 24 25 26 27 28
000
FTUS41 KBUF 011730 AAD
TAFJHW
TAF AMD
KJHW 011730Z 0118/0212 18007KT 6SM BR VCSH OVC005
     FM012200 30007KT P6SM BKN012
     FM020200 VRB03KT 6SM BR BKN015
     FM020500 00000KT 4SM BR VCSH OVC009
     FM020800 02004KT 2SM -SHRA OVC003
      AMD LTD TO CLD VIS AND WIND=

USA.gov is the U.S. government's official web portal to all federal, state and local government web resources and services.